sensor_id;sensor_type;location;lat;lon;timestamp;P1;durP1;ratioP1;P2;durP2;ratioP2
61911;SDS011;49973;52.084;5.412;2023-05-24T00:00:59;7.10;;;2.07;;
61911;SDS011;49973;52.084;5.412;2023-05-24T00:03:28;10.07;;;2.13;;
61911;SDS011;49973;52.084;5.412;2023-05-24T00:06:01;8.60;;;1.90;;
61911;SDS011;49973;52.084;5.412;2023-05-24T00:08:29;7.33;;;1.90;;
61911;SDS011;49973;52.084;5.412;2023-05-24T00:10:58;5.57;;;2.00;;
61911;SDS011;49973;52.084;5.412;2023-05-24T00:13:28;7.30;;;2.23;;
61911;SDS011;49973;52.084;5.412;2023-05-24T00:15:56;6.97;;;1.77;;
61911;SDS011;49973;52.084;5.412;2023-05-24T00:18:25;9.17;;;2.37;;
61911;SDS011;49973;52.084;5.412;2023-05-24T00:20:57;15.23;;;2.40;;
61911;SDS011;49973;52.084;5.412;2023-05-24T00:23:25;8.87;;;1.90;;
61911;SDS011;49973;52.084;5.412;2023-05-24T00:25:54;3.37;;;1.97;;
61911;SDS011;49973;52.084;5.412;2023-05-24T00:28:23;6.80;;;1.83;;
61911;SDS011;49973;52.084;5.412;2023-05-24T00:30:53;6.53;;;2.00;;
61911;SDS011;49973;52.084;5.412;2023-05-24T00:33:21;7.60;;;2.43;;
61911;SDS011;49973;52.084;5.412;2023-05-24T00:35:51;7.00;;;2.30;;
61911;SDS011;49973;52.084;5.412;2023-05-24T00:38:22;3.10;;;1.87;;
61911;SDS011;49973;52.084;5.412;2023-05-24T00:40:52;13.37;;;1.97;;
61911;SDS011;49973;52.084;5.412;2023-05-24T00:43:22;6.63;;;1.97;;
61911;SDS011;49973;52.084;5.412;2023-05-24T00:45:55;7.73;;;1.93;;
61911;SDS011;49973;52.084;5.412;2023-05-24T00:48:40;5.77;;;1.67;;
61911;SDS011;49973;52.084;5.412;2023-05-24T00:51:10;9.67;;;2.17;;
61911;SDS011;49973;52.084;5.412;2023-05-24T00:53:40;6.37;;;2.03;;
61911;SDS011;49973;52.084;5.412;2023-05-24T00:56:11;12.47;;;2.00;;
61911;SDS011;49973;52.084;5.412;2023-05-24T00:58:40;8.00;;;2.33;;
61911;SDS011;49973;52.084;5.412;2023-05-24T01:01:10;3.30;;;1.83;;
61911;SDS011;49973;52.084;5.412;2023-05-24T01:03:40;8.13;;;2.03;;
61911;SDS011;49973;52.084;5.412;2023-05-24T01:06:10;6.50;;;2.27;;
61911;SDS011;49973;52.084;5.412;2023-05-24T01:08:45;4.00;;;1.90;;
61911;SDS011;49973;52.084;5.412;2023-05-24T01:11:24;14.33;;;2.57;;
61911;SDS011;49973;52.084;5.412;2023-05-24T01:14:03;7.70;;;2.00;;
61911;SDS011;49973;52.084;5.412;2023-05-24T01:16:48;8.07;;;2.17;;
61911;SDS011;49973;52.084;5.412;2023-05-24T01:19:24;10.47;;;2.43;;
61911;SDS011;49973;52.084;5.412;2023-05-24T01:22:23;10.37;;;1.87;;
61911;SDS011;49973;52.084;5.412;2023-05-24T01:25:06;13.07;;;2.63;;
61911;SDS011;49973;52.084;5.412;2023-05-24T01:27:41;10.43;;;2.70;;
61911;SDS011;49973;52.084;5.412;2023-05-24T01:30:11;7.03;;;2.73;;
61911;SDS011;49973;52.084;5.412;2023-05-24T01:32:41;7.03;;;2.10;;
61911;SDS011;49973;52.084;5.412;2023-05-24T01:35:11;5.20;;;2.20;;
61911;SDS011;49973;52.084;5.412;2023-05-24T01:37:39;8.80;;;2.33;;
61911;SDS011;49973;52.084;5.412;2023-05-24T01:40:09;9.97;;;2.50;;
61911;SDS011;49973;52.084;5.412;2023-05-24T01:42:39;15.47;;;2.40;;
61911;SDS011;49973;52.084;5.412;2023-05-24T01:45:13;10.37;;;2.30;;
61911;SDS011;49973;52.084;5.412;2023-05-24T01:47:51;10.03;;;2.47;;
61911;SDS011;49973;52.084;5.412;2023-05-24T01:50:30;7.93;;;2.43;;
61911;SDS011;49973;52.084;5.412;2023-05-24T01:53:02;11.97;;;2.60;;
61911;SDS011;49973;52.084;5.412;2023-05-24T01:55:34;18.10;;;3.60;;
61911;SDS011;49973;52.084;5.412;2023-05-24T01:58:05;9.50;;;2.67;;
61911;SDS011;49973;52.084;5.412;2023-05-24T02:00:36;10.27;;;2.37;;
61911;SDS011;49973;52.084;5.412;2023-05-24T02:03:07;4.73;;;2.30;;
61911;SDS011;49973;52.084;5.412;2023-05-24T02:05:37;12.93;;;2.67;;
61911;SDS011;49973;52.084;5.412;2023-05-24T02:08:06;6.07;;;2.53;;
61911;SDS011;49973;52.084;5.412;2023-05-24T02:10:34;16.60;;;3.07;;
61911;SDS011;49973;52.084;5.412;2023-05-24T02:13:06;16.00;;;2.63;;
61911;SDS011;49973;52.084;5.412;2023-05-24T02:15:36;12.23;;;3.30;;
61911;SDS011;49973;52.084;5.412;2023-05-24T02:18:10;10.43;;;2.93;;
61911;SDS011;49973;52.084;5.412;2023-05-24T02:20:40;14.43;;;3.37;;
61911;SDS011;49973;52.084;5.412;2023-05-24T02:23:09;8.43;;;2.57;;
61911;SDS011;49973;52.084;5.412;2023-05-24T02:25:38;8.70;;;2.53;;
61911;SDS011;49973;52.084;5.412;2023-05-24T02:28:08;13.03;;;2.37;;
61911;SDS011;49973;52.084;5.412;2023-05-24T02:30:36;12.47;;;3.00;;
61911;SDS011;49973;52.084;5.412;2023-05-24T02:33:06;17.00;;;3.87;;
61911;SDS011;49973;52.084;5.412;2023-05-24T02:35:34;11.83;;;3.53;;
61911;SDS011;49973;52.084;5.412;2023-05-24T02:38:03;7.53;;;2.53;;
61911;SDS011;49973;52.084;5.412;2023-05-24T02:40:32;15.63;;;3.30;;
61911;SDS011;49973;52.084;5.412;2023-05-24T02:43:01;10.00;;;2.73;;
61911;SDS011;49973;52.084;5.412;2023-05-24T02:45:31;11.97;;;3.40;;
61911;SDS011;49973;52.084;5.412;2023-05-24T02:48:00;14.47;;;3.23;;
61911;SDS011;49973;52.084;5.412;2023-05-24T02:50:28;12.23;;;3.30;;
61911;SDS011;49973;52.084;5.412;2023-05-24T02:52:57;18.67;;;3.00;;
61911;SDS011;49973;52.084;5.412;2023-05-24T02:55:26;17.13;;;3.17;;
61911;SDS011;49973;52.084;5.412;2023-05-24T02:57:55;8.73;;;2.90;;
61911;SDS011;49973;52.084;5.412;2023-05-24T03:00:24;20.97;;;3.23;;
61911;SDS011;49973;52.084;5.412;2023-05-24T03:02:55;10.43;;;3.13;;
61911;SDS011;49973;52.084;5.412;2023-05-24T03:05:28;12.67;;;3.23;;
61911;SDS011;49973;52.084;5.412;2023-05-24T03:07:56;22.07;;;4.03;;
61911;SDS011;49973;52.084;5.412;2023-05-24T03:10:25;10.57;;;3.20;;
61911;SDS011;49973;52.084;5.412;2023-05-24T03:12:54;16.07;;;5.10;;
61911;SDS011;49973;52.084;5.412;2023-05-24T03:15:23;21.43;;;4.90;;
61911;SDS011;49973;52.084;5.412;2023-05-24T03:17:52;9.60;;;3.73;;
61911;SDS011;49973;52.084;5.412;2023-05-24T03:20:22;16.60;;;3.97;;
61911;SDS011;49973;52.084;5.412;2023-05-24T03:22:51;15.47;;;3.57;;
61911;SDS011;49973;52.084;5.412;2023-05-24T03:25:19;6.37;;;2.77;;
61911;SDS011;49973;52.084;5.412;2023-05-24T03:27:48;20.80;;;4.00;;
61911;SDS011;49973;52.084;5.412;2023-05-24T03:30:18;9.30;;;2.97;;
61911;SDS011;49973;52.084;5.412;2023-05-24T03:32:52;7.23;;;2.90;;
61911;SDS011;49973;52.084;5.412;2023-05-24T03:35:22;20.47;;;3.43;;
61911;SDS011;49973;52.084;5.412;2023-05-24T03:37:51;12.23;;;3.30;;
61911;SDS011;49973;52.084;5.412;2023-05-24T03:40:20;18.30;;;3.23;;
61911;SDS011;49973;52.084;5.412;2023-05-24T03:42:58;14.87;;;3.03;;
61911;SDS011;49973;52.084;5.412;2023-05-24T03:45:56;21.93;;;2.93;;
61911;SDS011;49973;52.084;5.412;2023-05-24T03:48:25;20.43;;;3.97;;
61911;SDS011;49973;52.084;5.412;2023-05-24T03:50:55;12.50;;;3.63;;
61911;SDS011;49973;52.084;5.412;2023-05-24T03:53:24;10.97;;;3.10;;
61911;SDS011;49973;52.084;5.412;2023-05-24T03:55:53;13.83;;;3.43;;
61911;SDS011;49973;52.084;5.412;2023-05-24T03:58:22;13.30;;;3.63;;
61911;SDS011;49973;52.084;5.412;2023-05-24T04:00:50;14.00;;;3.37;;
61911;SDS011;49973;52.084;5.412;2023-05-24T04:03:21;14.77;;;3.27;;
61911;SDS011;49973;52.084;5.412;2023-05-24T04:05:52;6.43;;;2.87;;
61911;SDS011;49973;52.084;5.412;2023-05-24T04:08:22;7.97;;;2.63;;
61911;SDS011;49973;52.084;5.412;2023-05-24T04:10:51;11.03;;;4.27;;
61911;SDS011;49973;52.084;5.412;2023-05-24T04:13:19;13.57;;;3.93;;
61911;SDS011;49973;52.084;5.412;2023-05-24T04:15:48;15.47;;;3.20;;
61911;SDS011;49973;52.084;5.412;2023-05-24T04:18:17;8.30;;;3.07;;
61911;SDS011;49973;52.084;5.412;2023-05-24T04:20:46;13.53;;;3.90;;
61911;SDS011;49973;52.084;5.412;2023-05-24T04:23:14;15.10;;;3.97;;
61911;SDS011;49973;52.084;5.412;2023-05-24T04:25:44;17.93;;;3.30;;
61911;SDS011;49973;52.084;5.412;2023-05-24T04:28:14;11.77;;;4.33;;
61911;SDS011;49973;52.084;5.412;2023-05-24T04:30:44;9.83;;;3.23;;
61911;SDS011;49973;52.084;5.412;2023-05-24T04:33:13;14.97;;;3.70;;
61911;SDS011;49973;52.084;5.412;2023-05-24T04:35:42;13.03;;;3.10;;
61911;SDS011;49973;52.084;5.412;2023-05-24T04:38:12;12.10;;;4.27;;
61911;SDS011;49973;52.084;5.412;2023-05-24T04:40:41;12.73;;;4.20;;
61911;SDS011;49973;52.084;5.412;2023-05-24T04:43:11;16.63;;;3.33;;
61911;SDS011;49973;52.084;5.412;2023-05-24T04:45:40;18.03;;;3.63;;
61911;SDS011;49973;52.084;5.412;2023-05-24T04:48:09;13.70;;;3.27;;
61911;SDS011;49973;52.084;5.412;2023-05-24T04:50:37;18.90;;;3.43;;
61911;SDS011;49973;52.084;5.412;2023-05-24T04:53:07;8.47;;;3.30;;
61911;SDS011;49973;52.084;5.412;2023-05-24T04:55:35;9.50;;;3.60;;
61911;SDS011;49973;52.084;5.412;2023-05-24T04:58:04;17.63;;;3.50;;
61911;SDS011;49973;52.084;5.412;2023-05-24T05:00:34;13.13;;;4.20;;
61911;SDS011;49973;52.084;5.412;2023-05-24T05:03:03;11.20;;;3.23;;
61911;SDS011;49973;52.084;5.412;2023-05-24T05:05:31;14.10;;;3.53;;
61911;SDS011;49973;52.084;5.412;2023-05-24T05:08:00;16.13;;;3.33;;
61911;SDS011;49973;52.084;5.412;2023-05-24T05:10:29;13.50;;;3.50;;
61911;SDS011;49973;52.084;5.412;2023-05-24T05:12:58;10.07;;;3.53;;
61911;SDS011;49973;52.084;5.412;2023-05-24T05:15:27;15.33;;;3.80;;
61911;SDS011;49973;52.084;5.412;2023-05-24T05:17:57;13.63;;;3.60;;
61911;SDS011;49973;52.084;5.412;2023-05-24T05:20:26;10.33;;;3.67;;
61911;SDS011;49973;52.084;5.412;2023-05-24T05:22:54;9.77;;;3.53;;
61911;SDS011;49973;52.084;5.412;2023-05-24T05:25:23;24.87;;;4.77;;
61911;SDS011;49973;52.084;5.412;2023-05-24T05:27:52;15.40;;;3.37;;
61911;SDS011;49973;52.084;5.412;2023-05-24T05:30:20;17.73;;;4.00;;
61911;SDS011;49973;52.084;5.412;2023-05-24T05:32:49;11.50;;;4.10;;
61911;SDS011;49973;52.084;5.412;2023-05-24T05:35:19;16.17;;;3.83;;
61911;SDS011;49973;52.084;5.412;2023-05-24T05:37:48;8.87;;;3.40;;
61911;SDS011;49973;52.084;5.412;2023-05-24T05:40:16;17.60;;;3.97;;
61911;SDS011;49973;52.084;5.412;2023-05-24T05:42:45;15.20;;;2.80;;
61911;SDS011;49973;52.084;5.412;2023-05-24T05:45:15;14.80;;;3.50;;
61911;SDS011;49973;52.084;5.412;2023-05-24T05:47:43;13.17;;;3.03;;
61911;SDS011;49973;52.084;5.412;2023-05-24T05:50:12;10.63;;;3.00;;
61911;SDS011;49973;52.084;5.412;2023-05-24T05:52:42;10.80;;;2.80;;
61911;SDS011;49973;52.084;5.412;2023-05-24T05:55:11;11.10;;;2.73;;
61911;SDS011;49973;52.084;5.412;2023-05-24T05:57:39;12.67;;;2.80;;
61911;SDS011;49973;52.084;5.412;2023-05-24T06:00:09;14.23;;;3.43;;
61911;SDS011;49973;52.084;5.412;2023-05-24T06:02:38;12.03;;;2.50;;
61911;SDS011;49973;52.084;5.412;2023-05-24T06:05:07;10.80;;;3.07;;
61911;SDS011;49973;52.084;5.412;2023-05-24T06:07:36;12.03;;;2.93;;
61911;SDS011;49973;52.084;5.412;2023-05-24T06:10:07;12.67;;;2.77;;
61911;SDS011;49973;52.084;5.412;2023-05-24T06:12:36;17.43;;;3.57;;
61911;SDS011;49973;52.084;5.412;2023-05-24T06:15:06;19.17;;;3.17;;
61911;SDS011;49973;52.084;5.412;2023-05-24T06:17:35;6.73;;;2.13;;
61911;SDS011;49973;52.084;5.412;2023-05-24T06:20:05;20.97;;;3.40;;
61911;SDS011;49973;52.084;5.412;2023-05-24T06:22:37;7.83;;;2.20;;
61911;SDS011;49973;52.084;5.412;2023-05-24T06:25:07;6.90;;;2.90;;
61911;SDS011;49973;52.084;5.412;2023-05-24T06:27:41;8.40;;;2.63;;
61911;SDS011;49973;52.084;5.412;2023-05-24T06:30:10;10.03;;;2.40;;
61911;SDS011;49973;52.084;5.412;2023-05-24T06:32:39;12.50;;;3.07;;
61911;SDS011;49973;52.084;5.412;2023-05-24T06:35:08;18.03;;;2.63;;
61911;SDS011;49973;52.084;5.412;2023-05-24T06:37:37;8.47;;;2.10;;
61911;SDS011;49973;52.084;5.412;2023-05-24T06:40:08;8.83;;;2.53;;
61911;SDS011;49973;52.084;5.412;2023-05-24T06:42:37;5.80;;;2.07;;
61911;SDS011;49973;52.084;5.412;2023-05-24T06:45:07;15.13;;;2.87;;
61911;SDS011;49973;52.084;5.412;2023-05-24T06:47:36;10.47;;;2.13;;
61911;SDS011;49973;52.084;5.412;2023-05-24T06:50:06;5.87;;;2.43;;
61911;SDS011;49973;52.084;5.412;2023-05-24T06:52:35;10.77;;;2.37;;
61911;SDS011;49973;52.084;5.412;2023-05-24T06:55:04;15.90;;;3.53;;
61911;SDS011;49973;52.084;5.412;2023-05-24T06:57:35;6.20;;;2.10;;
61911;SDS011;49973;52.084;5.412;2023-05-24T07:00:04;10.00;;;1.73;;
61911;SDS011;49973;52.084;5.412;2023-05-24T07:02:35;11.17;;;3.07;;
61911;SDS011;49973;52.084;5.412;2023-05-24T07:05:04;10.93;;;2.30;;
61911;SDS011;49973;52.084;5.412;2023-05-24T07:07:37;14.80;;;2.10;;
61911;SDS011;49973;52.084;5.412;2023-05-24T07:10:06;9.60;;;2.33;;
61911;SDS011;49973;52.084;5.412;2023-05-24T07:12:38;11.97;;;2.80;;
61911;SDS011;49973;52.084;5.412;2023-05-24T07:15:07;14.43;;;2.47;;
61911;SDS011;49973;52.084;5.412;2023-05-24T07:17:37;12.77;;;2.30;;
61911;SDS011;49973;52.084;5.412;2023-05-24T07:20:06;11.50;;;2.10;;
61911;SDS011;49973;52.084;5.412;2023-05-24T07:22:37;19.03;;;2.43;;
61911;SDS011;49973;52.084;5.412;2023-05-24T07:25:06;6.90;;;1.90;;
61911;SDS011;49973;52.084;5.412;2023-05-24T07:27:35;9.30;;;2.27;;
61911;SDS011;49973;52.084;5.412;2023-05-24T07:30:06;15.47;;;2.63;;
61911;SDS011;49973;52.084;5.412;2023-05-24T07:32:45;9.07;;;2.17;;
61911;SDS011;49973;52.084;5.412;2023-05-24T07:35:14;10.17;;;1.93;;
61911;SDS011;49973;52.084;5.412;2023-05-24T07:37:44;12.60;;;2.70;;
61911;SDS011;49973;52.084;5.412;2023-05-24T07:40:13;10.40;;;1.80;;
61911;SDS011;49973;52.084;5.412;2023-05-24T07:42:42;11.03;;;2.87;;
61911;SDS011;49973;52.084;5.412;2023-05-24T07:45:14;9.83;;;2.07;;
61911;SDS011;49973;52.084;5.412;2023-05-24T07:47:43;13.23;;;2.27;;
61911;SDS011;49973;52.084;5.412;2023-05-24T07:50:12;12.30;;;2.20;;
61911;SDS011;49973;52.084;5.412;2023-05-24T07:52:41;11.20;;;2.00;;
61911;SDS011;49973;52.084;5.412;2023-05-24T07:55:11;9.30;;;2.23;;
61911;SDS011;49973;52.084;5.412;2023-05-24T07:57:40;13.13;;;2.20;;
61911;SDS011;49973;52.084;5.412;2023-05-24T08:00:09;7.80;;;1.90;;
61911;SDS011;49973;52.084;5.412;2023-05-24T08:02:42;6.17;;;1.93;;
61911;SDS011;49973;52.084;5.412;2023-05-24T08:05:12;7.57;;;2.20;;
61911;SDS011;49973;52.084;5.412;2023-05-24T08:07:41;12.87;;;1.80;;
61911;SDS011;49973;52.084;5.412;2023-05-24T08:10:10;16.17;;;2.90;;
61911;SDS011;49973;52.084;5.412;2023-05-24T08:12:40;6.83;;;2.10;;
61911;SDS011;49973;52.084;5.412;2023-05-24T08:15:09;14.10;;;2.10;;
61911;SDS011;49973;52.084;5.412;2023-05-24T08:17:38;9.07;;;2.47;;
61911;SDS011;49973;52.084;5.412;2023-05-24T08:20:10;9.83;;;2.67;;
61911;SDS011;49973;52.084;5.412;2023-05-24T08:22:41;10.63;;;2.47;;
61911;SDS011;49973;52.084;5.412;2023-05-24T08:25:10;9.47;;;2.17;;
61911;SDS011;49973;52.084;5.412;2023-05-24T08:27:39;7.57;;;1.90;;
61911;SDS011;49973;52.084;5.412;2023-05-24T08:30:08;10.10;;;1.97;;
61911;SDS011;49973;52.084;5.412;2023-05-24T08:32:37;9.63;;;2.73;;
61911;SDS011;49973;52.084;5.412;2023-05-24T08:35:06;17.67;;;2.73;;
61911;SDS011;49973;52.084;5.412;2023-05-24T08:37:47;7.60;;;2.43;;
61911;SDS011;49973;52.084;5.412;2023-05-24T08:40:16;9.23;;;2.43;;
61911;SDS011;49973;52.084;5.412;2023-05-24T08:42:45;15.57;;;2.77;;
61911;SDS011;49973;52.084;5.412;2023-05-24T08:45:16;8.07;;;2.47;;
61911;SDS011;49973;52.084;5.412;2023-05-24T08:47:47;8.23;;;2.10;;
61911;SDS011;49973;52.084;5.412;2023-05-24T08:50:17;13.47;;;2.83;;
61911;SDS011;49973;52.084;5.412;2023-05-24T08:52:48;8.53;;;2.27;;
61911;SDS011;49973;52.084;5.412;2023-05-24T08:55:18;9.67;;;2.17;;
61911;SDS011;49973;52.084;5.412;2023-05-24T08:57:48;8.97;;;1.73;;
61911;SDS011;49973;52.084;5.412;2023-05-24T09:00:17;10.23;;;1.97;;
61911;SDS011;49973;52.084;5.412;2023-05-24T09:02:47;15.80;;;2.50;;
61911;SDS011;49973;52.084;5.412;2023-05-24T09:05:17;7.07;;;2.60;;
61911;SDS011;49973;52.084;5.412;2023-05-24T09:07:49;9.87;;;1.90;;
61911;SDS011;49973;52.084;5.412;2023-05-24T09:10:18;9.30;;;2.80;;
61911;SDS011;49973;52.084;5.412;2023-05-24T09:12:49;8.00;;;1.83;;
61911;SDS011;49973;52.084;5.412;2023-05-24T09:15:22;6.77;;;1.90;;
61911;SDS011;49973;52.084;5.412;2023-05-24T09:17:51;5.53;;;2.03;;
61911;SDS011;49973;52.084;5.412;2023-05-24T09:20:20;3.00;;;1.47;;
61911;SDS011;49973;52.084;5.412;2023-05-24T09:22:51;14.60;;;2.53;;
61911;SDS011;49973;52.084;5.412;2023-05-24T09:25:19;16.07;;;2.47;;
61911;SDS011;49973;52.084;5.412;2023-05-24T09:27:48;11.43;;;2.23;;
61911;SDS011;49973;52.084;5.412;2023-05-24T09:30:18;12.70;;;2.37;;
61911;SDS011;49973;52.084;5.412;2023-05-24T09:32:54;8.43;;;2.33;;
61911;SDS011;49973;52.084;5.412;2023-05-24T09:35:24;7.93;;;2.17;;
61911;SDS011;49973;52.084;5.412;2023-05-24T09:37:55;11.03;;;2.07;;
61911;SDS011;49973;52.084;5.412;2023-05-24T09:40:26;5.97;;;2.07;;
61911;SDS011;49973;52.084;5.412;2023-05-24T09:43:02;7.80;;;2.50;;
61911;SDS011;49973;52.084;5.412;2023-05-24T09:45:36;10.30;;;2.33;;
61911;SDS011;49973;52.084;5.412;2023-05-24T09:48:09;9.30;;;2.23;;
61911;SDS011;49973;52.084;5.412;2023-05-24T09:50:39;8.23;;;2.00;;
61911;SDS011;49973;52.084;5.412;2023-05-24T09:53:09;6.07;;;1.87;;
61911;SDS011;49973;52.084;5.412;2023-05-24T09:55:38;9.63;;;2.23;;
61911;SDS011;49973;52.084;5.412;2023-05-24T09:58:07;13.33;;;2.40;;
61911;SDS011;49973;52.084;5.412;2023-05-24T10:00:39;7.83;;;2.17;;
61911;SDS011;49973;52.084;5.412;2023-05-24T10:03:09;6.43;;;1.90;;
61911;SDS011;49973;52.084;5.412;2023-05-24T10:05:40;13.20;;;2.53;;
61911;SDS011;49973;52.084;5.412;2023-05-24T10:08:12;13.83;;;2.33;;
61911;SDS011;49973;52.084;5.412;2023-05-24T10:10:44;8.73;;;2.00;;
61911;SDS011;49973;52.084;5.412;2023-05-24T10:13:13;9.43;;;2.03;;
61911;SDS011;49973;52.084;5.412;2023-05-24T10:15:44;5.20;;;1.73;;
61911;SDS011;49973;52.084;5.412;2023-05-24T10:18:12;8.87;;;2.20;;
61911;SDS011;49973;52.084;5.412;2023-05-24T10:20:42;9.90;;;2.10;;
61911;SDS011;49973;52.084;5.412;2023-05-24T10:23:14;5.87;;;1.70;;
61911;SDS011;49973;52.084;5.412;2023-05-24T10:25:48;12.77;;;2.50;;
61911;SDS011;49973;52.084;5.412;2023-05-24T10:28:19;9.13;;;2.10;;
61911;SDS011;49973;52.084;5.412;2023-05-24T10:30:53;15.23;;;2.43;;
61911;SDS011;49973;52.084;5.412;2023-05-24T10:33:28;7.67;;;1.93;;
61911;SDS011;49973;52.084;5.412;2023-05-24T10:35:59;7.27;;;2.10;;
61911;SDS011;49973;52.084;5.412;2023-05-24T10:38:32;7.37;;;2.30;;
61911;SDS011;49973;52.084;5.412;2023-05-24T10:41:01;12.10;;;2.13;;
61911;SDS011;49973;52.084;5.412;2023-05-24T10:43:30;11.67;;;2.47;;
61911;SDS011;49973;52.084;5.412;2023-05-24T10:45:58;4.43;;;1.77;;
61911;SDS011;49973;52.084;5.412;2023-05-24T10:48:38;12.03;;;2.90;;
61911;SDS011;49973;52.084;5.412;2023-05-24T10:54:10;12.73;;;2.33;;
61911;SDS011;49973;52.084;5.412;2023-05-24T10:56:46;8.53;;;2.23;;
61911;SDS011;49973;52.084;5.412;2023-05-24T10:59:21;7.93;;;2.30;;
61911;SDS011;49973;52.084;5.412;2023-05-24T11:01:54;10.17;;;2.00;;
61911;SDS011;49973;52.084;5.412;2023-05-24T11:04:24;7.80;;;1.67;;
61911;SDS011;49973;52.084;5.412;2023-05-24T11:06:54;12.53;;;2.47;;
61911;SDS011;49973;52.084;5.412;2023-05-24T11:09:25;7.83;;;2.00;;
61911;SDS011;49973;52.084;5.412;2023-05-24T11:11:55;5.70;;;1.63;;
61911;SDS011;49973;52.084;5.412;2023-05-24T11:14:26;4.47;;;1.37;;
61911;SDS011;49973;52.084;5.412;2023-05-24T11:16:56;7.13;;;1.93;;
61911;SDS011;49973;52.084;5.412;2023-05-24T11:19:30;13.40;;;1.83;;
61911;SDS011;49973;52.084;5.412;2023-05-24T11:22:01;8.73;;;2.20;;
61911;SDS011;49973;52.084;5.412;2023-05-24T11:24:34;13.70;;;2.77;;
61911;SDS011;49973;52.084;5.412;2023-05-24T11:27:04;3.57;;;1.60;;
61911;SDS011;49973;52.084;5.412;2023-05-24T11:29:39;12.60;;;1.93;;
61911;SDS011;49973;52.084;5.412;2023-05-24T11:32:08;9.27;;;2.40;;
61911;SDS011;49973;52.084;5.412;2023-05-24T11:34:41;7.30;;;1.87;;
61911;SDS011;49973;52.084;5.412;2023-05-24T11:37:11;5.40;;;1.63;;
61911;SDS011;49973;52.084;5.412;2023-05-24T11:39:48;5.40;;;1.80;;
61911;SDS011;49973;52.084;5.412;2023-05-24T11:42:20;6.90;;;1.77;;
61911;SDS011;49973;52.084;5.412;2023-05-24T11:44:50;9.53;;;2.00;;
61911;SDS011;49973;52.084;5.412;2023-05-24T11:47:20;9.40;;;2.10;;
61911;SDS011;49973;52.084;5.412;2023-05-24T11:49:50;6.43;;;2.27;;
61911;SDS011;49973;52.084;5.412;2023-05-24T11:52:19;9.10;;;1.90;;
61911;SDS011;49973;52.084;5.412;2023-05-24T11:54:50;2.10;;;1.27;;
61911;SDS011;49973;52.084;5.412;2023-05-24T11:57:28;7.23;;;1.83;;
61911;SDS011;49973;52.084;5.412;2023-05-24T12:00:04;8.27;;;2.30;;
61911;SDS011;49973;52.084;5.412;2023-05-24T12:02:37;9.40;;;2.13;;
61911;SDS011;49973;52.084;5.412;2023-05-24T12:05:06;9.67;;;2.20;;
61911;SDS011;49973;52.084;5.412;2023-05-24T12:07:37;5.37;;;1.30;;
61911;SDS011;49973;52.084;5.412;2023-05-24T12:10:08;7.70;;;1.67;;
61911;SDS011;49973;52.084;5.412;2023-05-24T12:12:41;5.53;;;2.13;;
61911;SDS011;49973;52.084;5.412;2023-05-24T12:15:12;7.73;;;2.17;;
61911;SDS011;49973;52.084;5.412;2023-05-24T12:17:41;6.13;;;1.70;;
61911;SDS011;49973;52.084;5.412;2023-05-24T12:20:11;9.20;;;1.63;;
61911;SDS011;49973;52.084;5.412;2023-05-24T12:22:46;8.43;;;2.10;;
61911;SDS011;49973;52.084;5.412;2023-05-24T12:25:18;5.53;;;2.30;;
61911;SDS011;49973;52.084;5.412;2023-05-24T12:27:51;5.83;;;2.17;;
61911;SDS011;49973;52.084;5.412;2023-05-24T12:30:21;10.07;;;1.97;;
61911;SDS011;49973;52.084;5.412;2023-05-24T12:32:51;4.83;;;2.10;;
61911;SDS011;49973;52.084;5.412;2023-05-24T12:35:20;6.57;;;1.87;;
61911;SDS011;49973;52.084;5.412;2023-05-24T12:37:56;11.83;;;2.20;;
61911;SDS011;49973;52.084;5.412;2023-05-24T12:40:31;12.83;;;2.17;;
61911;SDS011;49973;52.084;5.412;2023-05-24T12:43:01;8.97;;;1.90;;
61911;SDS011;49973;52.084;5.412;2023-05-24T12:45:31;5.33;;;1.87;;
61911;SDS011;49973;52.084;5.412;2023-05-24T12:48:00;8.33;;;2.17;;
61911;SDS011;49973;52.084;5.412;2023-05-24T12:50:31;14.90;;;2.43;;
61911;SDS011;49973;52.084;5.412;2023-05-24T12:53:00;3.27;;;1.53;;
61911;SDS011;49973;52.084;5.412;2023-05-24T12:55:31;4.87;;;1.77;;
61911;SDS011;49973;52.084;5.412;2023-05-24T12:58:00;9.07;;;2.47;;
61911;SDS011;49973;52.084;5.412;2023-05-24T13:00:32;9.20;;;1.93;;
61911;SDS011;49973;52.084;5.412;2023-05-24T13:03:01;8.13;;;2.07;;
61911;SDS011;49973;52.084;5.412;2023-05-24T13:05:30;6.73;;;2.37;;
61911;SDS011;49973;52.084;5.412;2023-05-24T13:07:59;8.70;;;1.90;;
61911;SDS011;49973;52.084;5.412;2023-05-24T13:10:31;11.53;;;2.43;;
61911;SDS011;49973;52.084;5.412;2023-05-24T13:13:00;7.33;;;2.10;;
61911;SDS011;49973;52.084;5.412;2023-05-24T13:15:29;6.40;;;2.40;;
61911;SDS011;49973;52.084;5.412;2023-05-24T13:17:58;5.33;;;1.53;;
61911;SDS011;49973;52.084;5.412;2023-05-24T13:20:27;9.00;;;2.13;;
61911;SDS011;49973;52.084;5.412;2023-05-24T13:22:56;4.23;;;1.80;;
61911;SDS011;49973;52.084;5.412;2023-05-24T13:25:25;4.53;;;1.67;;
61911;SDS011;49973;52.084;5.412;2023-05-24T13:27:55;10.30;;;2.07;;
61911;SDS011;49973;52.084;5.412;2023-05-24T13:30:25;9.37;;;2.27;;
61911;SDS011;49973;52.084;5.412;2023-05-24T13:32:54;9.27;;;1.70;;
61911;SDS011;49973;52.084;5.412;2023-05-24T13:35:24;7.20;;;2.43;;
61911;SDS011;49973;52.084;5.412;2023-05-24T13:37:53;8.93;;;2.00;;
61911;SDS011;49973;52.084;5.412;2023-05-24T13:40:23;6.43;;;1.97;;
61911;SDS011;49973;52.084;5.412;2023-05-24T13:42:53;8.60;;;2.50;;
61911;SDS011;49973;52.084;5.412;2023-05-24T13:45:24;6.73;;;2.20;;
61911;SDS011;49973;52.084;5.412;2023-05-24T13:47:56;10.57;;;2.10;;
61911;SDS011;49973;52.084;5.412;2023-05-24T13:50:30;8.80;;;2.00;;
61911;SDS011;49973;52.084;5.412;2023-05-24T13:53:00;11.13;;;3.03;;
61911;SDS011;49973;52.084;5.412;2023-05-24T13:55:30;16.70;;;2.47;;
61911;SDS011;49973;52.084;5.412;2023-05-24T13:58:02;12.60;;;2.53;;
61911;SDS011;49973;52.084;5.412;2023-05-24T14:00:31;12.67;;;2.27;;
61911;SDS011;49973;52.084;5.412;2023-05-24T14:03:03;5.93;;;1.83;;
61911;SDS011;49973;52.084;5.412;2023-05-24T14:05:32;7.60;;;2.30;;
61911;SDS011;49973;52.084;5.412;2023-05-24T14:08:02;6.57;;;2.00;;
61911;SDS011;49973;52.084;5.412;2023-05-24T14:10:33;7.30;;;1.80;;
61911;SDS011;49973;52.084;5.412;2023-05-24T14:13:04;10.57;;;1.87;;
61911;SDS011;49973;52.084;5.412;2023-05-24T14:15:54;6.27;;;2.07;;
61911;SDS011;49973;52.084;5.412;2023-05-24T14:18:23;4.83;;;2.00;;
61911;SDS011;49973;52.084;5.412;2023-05-24T14:20:52;5.30;;;1.80;;
61911;SDS011;49973;52.084;5.412;2023-05-24T14:23:21;12.73;;;2.07;;
61911;SDS011;49973;52.084;5.412;2023-05-24T14:25:50;4.23;;;1.57;;
61911;SDS011;49973;52.084;5.412;2023-05-24T14:28:21;4.67;;;2.50;;
61911;SDS011;49973;52.084;5.412;2023-05-24T14:30:52;4.87;;;1.73;;
61911;SDS011;49973;52.084;5.412;2023-05-24T14:33:21;6.97;;;1.93;;
61911;SDS011;49973;52.084;5.412;2023-05-24T14:35:50;11.27;;;2.63;;
61911;SDS011;49973;52.084;5.412;2023-05-24T14:38:20;5.10;;;2.00;;
61911;SDS011;49973;52.084;5.412;2023-05-24T14:40:51;5.23;;;1.90;;
61911;SDS011;49973;52.084;5.412;2023-05-24T14:43:24;4.97;;;2.03;;
61911;SDS011;49973;52.084;5.412;2023-05-24T14:45:54;6.27;;;1.90;;
61911;SDS011;49973;52.084;5.412;2023-05-24T14:48:22;5.97;;;2.00;;
61911;SDS011;49973;52.084;5.412;2023-05-24T14:50:52;3.17;;;1.90;;
61911;SDS011;49973;52.084;5.412;2023-05-24T14:53:21;4.93;;;1.70;;
61911;SDS011;49973;52.084;5.412;2023-05-24T14:55:52;10.77;;;2.30;;
61911;SDS011;49973;52.084;5.412;2023-05-24T14:58:21;7.57;;;2.30;;
61911;SDS011;49973;52.084;5.412;2023-05-24T15:00:52;7.43;;;1.87;;
61911;SDS011;49973;52.084;5.412;2023-05-24T15:03:22;12.10;;;2.00;;